Flight Track Log - Related Links

Times and Time Zones

All times are in EDT time to prevent confusion due to time zone crossing. See the POE540 flight status page for this flight to view local times or setup timezone preferences in your user account.

Time Position Orientation Groundspeed Altitude Reporting Facility
EDT Latitude Longitude Course Direction KTS MPH feet Rate Location/Type
Fri 06:17:20 PM 46.5667 -80.8167 360° North 160 184 4,900  Level Toronto Center
Fri 06:17:20 PM 46.5667 -80.8167 167° South 160 184 4,900 2,100 Level Toronto Center
Fri 06:18:20 PM 46.5167 -80.8000 167° South 210 242 7,000 2,100 Climbing Toronto Center
Fri 06:18:20 PM 46.5167 -80.8000 167° South 210 242 7,000 2,200 Level Toronto Center
Fri 06:19:20 PM 46.4500 -80.7167 139° Southeast 270 311 9,200 2,200 Climbing Toronto Center
Fri 06:19:20 PM 46.4500 -80.7167 139° Southeast 270 311 9,200 2,500 Level Toronto Center
Fri 06:20:20 PM 46.3667 -80.6667 158° South 290 334 11,700 2,500 Climbing Toronto Center
Fri 06:20:20 PM 46.3667 -80.6667 158° South 290 334 11,700 2,300 Level Toronto Center
Fri 06:21:20 PM 46.3167 -80.6000 137° Southeast 290 334 14,000 2,300 Climbing Toronto Center
Fri 06:21:20 PM 46.3167 -80.6000 137° Southeast 290 334 14,000 2,200 Level Toronto Center
Fri 06:22:20 PM 46.2333 -80.5167 145° Southeast 290 334 16,200 2,200 Climbing Toronto Center
Fri 06:22:20 PM 46.2333 -80.5167 145° Southeast 290 334 16,200 1,900 Level Toronto Center
Fri 06:23:20 PM 46.1667 -80.4667 153° Southeast 290 334 18,100 1,900 Climbing Toronto Center
Fri 06:23:20 PM 46.1667 -80.4667 153° Southeast 290 334 18,100 1,800 Level Toronto Center
Fri 06:24:20 PM 46.1000 -80.4333 161° South 280 322 19,900 1,800 Climbing Toronto Center
Fri 06:24:20 PM 46.1000 -80.4333 161° South 280 322 19,900 1,800 Level Toronto Center
Fri 06:25:20 PM 46.0333 -80.3500 139° Southeast 280 322 21,700 1,800 Climbing Toronto Center
Fri 06:25:20 PM 46.0333 -80.3500 139° Southeast 280 322 21,700 1,300 Level Toronto Center
Fri 06:26:20 PM 45.9667 -80.3000 152° Southeast 280 322 23,000 1,300 Climbing Toronto Center
Fri 06:26:20 PM 45.9667 -80.3000 152° Southeast 280 322 23,000  Level Toronto Center
Fri 06:27:20 PM 45.9000 -80.2333 145° Southeast 310 357 23,000  Level Toronto Center
Fri 06:27:20 PM 45.9000 -80.2333 145° Southeast 310 357 23,000  Level Toronto Center
Fri 06:28:20 PM 45.8167 -80.1500 145° Southeast 340 391 23,000  Level Toronto Center
Fri 06:28:20 PM 45.8167 -80.1500 145° Southeast 340 391 23,000  Level Toronto Center
Fri 06:29:20 PM 45.7333 -80.0833 151° Southeast 350 403 23,000  Level Toronto Center
Fri 06:29:20 PM 45.7333 -80.0833 151° Southeast 350 403 23,000  Level Toronto Center
Fri 06:30:20 PM 45.6500 -80.0167 151° Southeast 350 403 23,000  Level Toronto Center
Fri 06:30:20 PM 45.6500 -80.0167 151° Southeast 350 403 23,000  Level Toronto Center
Fri 06:31:20 PM 45.5667 -79.9500 151° Southeast 350 403 23,000  Level Toronto Center
Fri 06:31:20 PM 45.5667 -79.9500 151° Southeast 350 403 23,000  Level Toronto Center
Fri 06:32:20 PM 45.4833 -79.8667 145° Southeast 350 403 23,000  Level Toronto Center
Fri 06:32:20 PM 45.4833 -79.8667 145° Southeast 350 403 23,000  Level Toronto Center
Fri 06:33:20 PM 45.4000 -79.7667 140° Southeast 350 403 23,000  Level Toronto Center
Fri 06:33:20 PM 45.4000 -79.7667 140° Southeast 350 403 23,000  Level Toronto Center
Fri 06:34:20 PM 45.3167 -79.7000 151° Southeast 360 414 23,000  Level Toronto Center
Fri 06:34:20 PM 45.3167 -79.7000 151° Southeast 360 414 23,000  Level Toronto Center
Fri 06:35:20 PM 45.2333 -79.6333 151° Southeast 360 414 23,000  Level Toronto Center
Fri 06:35:20 PM 45.2333 -79.6333 151° Southeast 360 414 23,000  Level Toronto Center
Fri 06:36:20 PM 45.1500 -79.5667 151° Southeast 360 414 23,000  Level Toronto Center
Fri 06:36:20 PM 45.1500 -79.5667 151° Southeast 360 414 23,000  Level Toronto Center
Fri 06:37:20 PM 45.0667 -79.4833 145° Southeast 360 414 23,000  Level Toronto Center
Fri 06:37:20 PM 45.0667 -79.4833 145° Southeast 360 414 23,000 -300 Level Toronto Center
Fri 06:38:20 PM 44.9833 -79.4167 150° Southeast 360 414 22,700 -300 Descending Toronto Center
Fri 06:38:20 PM 44.9833 -79.4167 150° Southeast 360 414 22,700 -500 Level Toronto Center
Fri 06:39:20 PM 44.9000 -79.3500 150° Southeast 360 414 22,200 -500 Descending Toronto Center
Fri 06:39:20 PM 44.9000 -79.3500 150° Southeast 360 414 22,200 -1,900 Level Toronto Center
Fri 06:40:20 PM 44.8000 -79.2500 145° Southeast 370 426 20,300 -1,900 Descending Toronto Center
Fri 06:40:20 PM 44.8000 -79.2500 145° Southeast 370 426 20,300 -2,100 Level Toronto Center
Fri 06:41:20 PM 44.7167 -79.1833 150° Southeast 380 437 18,200 -2,100 Descending Toronto Center
Fri 06:41:20 PM 44.7167 -79.1833 150° Southeast 380 437 18,200 -2,000 Level Toronto Center
Fri 06:42:20 PM 44.6333 -79.1167 150° Southeast 390 449 16,200 -2,000 Descending Toronto Center
Fri 06:42:20 PM 44.6333 -79.1167 150° Southeast 390 449 16,200 -2,200 Level Toronto Center
Fri 06:43:20 PM 44.5333 -79.0167 145° Southeast 370 426 14,000 -2,200 Descending Toronto Center
Fri 06:43:20 PM 44.5333 -79.0167 145° Southeast 370 426 14,000 -1,900 Level Toronto Center
Fri 06:44:20 PM 44.4500 -78.9500 150° Southeast 360 414 12,100 -1,900 Descending Toronto Center
Fri 06:44:20 PM 44.4500 -78.9500 150° Southeast 360 414 12,100 -2,000 Level Toronto Center
Fri 06:45:20 PM 44.3667 -78.8833 150° Southeast 340 391 10,100 -2,000 Descending Toronto Center
Fri 06:45:20 PM 44.3667 -78.8833 150° Southeast 340 391 10,100 -1,700 Level Toronto Center
Fri 06:46:20 PM 44.3000 -78.8667 170° South 320 368 8,400 -1,700 Descending Toronto Center
Fri 06:46:20 PM 44.3000 -78.8667 170° South 320 368 8,400 -1,500 Level Toronto Center
Fri 06:47:20 PM 44.2167 -78.8500 172° South 290 334 6,900 -1,500 Descending Toronto Center
Fri 06:47:20 PM 44.2167 -78.8500 172° South 290 334 6,900 -1,100 Level Toronto Center
Fri 06:48:20 PM 44.1333 -78.8500 180° South 280 322 5,800 -1,100 Descending Toronto Center
Fri 06:48:20 PM 44.1333 -78.8500 180° South 280 322 5,800 -700 Level Toronto Center
Fri 06:49:20 PM 44.0667 -78.8500 180° South 270 311 5,100 -700 Descending Toronto Center
Fri 06:49:20 PM 44.0667 -78.8500 180° South 270 311 5,100 -100 Level Toronto Center
Fri 06:50:20 PM 44.0000 -78.8167 160° South 260 299 5,000 -100 Descending Toronto Center
Fri 06:50:20 PM 44.0000 -78.8167 160° South 260 299 5,000  Level Toronto Center
Fri 06:51:20 PM 43.9167 -78.8167 180° South 260 299 5,000  Level Toronto Center
Fri 06:51:20 PM 43.9167 -78.8167 180° South 260 299 5,000 -100 Level Toronto Center
Fri 06:52:20 PM 43.8500 -78.8167 180° South 270 311 4,900 -100 Descending Toronto Center
Fri 06:52:20 PM 43.8500 -78.8167 180° South 270 311 4,900 -900 Level Toronto Center
Fri 06:53:20 PM 43.7833 -78.9000 222° Southwest 250 288 4,000 -900 Descending Toronto Center
Fri 06:53:20 PM 43.7833 -78.9000 222° Southwest 250 288 4,000 -600 Level Toronto Center
Fri 06:54:20 PM 43.7500 -78.9333 216° Southwest 240 276 3,400 -600 Descending Toronto Center
Fri 06:54:20 PM 43.7500 -78.9333 216° Southwest 240 276 3,400 -500 Level Toronto Center
Fri 06:55:20 PM 43.7000 -79.0167 230° Southwest 230 265 2,900 -500 Descending Toronto Center
Fri 06:55:20 PM 43.7000 -79.0167 230° Southwest 230 265 2,900 -500 Level Toronto Center
Fri 06:56:20 PM 43.6667 -79.1000 241° Southwest 230 265 2,400 -500 Descending Toronto Center
Fri 06:56:20 PM 43.6667 -79.1000 241° Southwest 230 265 2,400 -500 Level Toronto Center
Fri 06:57:20 PM 43.6500 -79.1667 251° West 210 242 1,900 -500 Descending Toronto Center
Fri 06:57:20 PM 43.6500 -79.1667 251° West 210 242 1,900 -400 Level Toronto Center
Fri 06:58:20 PM 43.6333 -79.2333 251° West 170 196 1,500 -400 Descending Toronto Center
Fri 06:58:20 PM 43.6333 -79.2333 251° West 170 196 1,500 100 Level Toronto Center
Fri 06:59:20 PM 43.6333 -79.2833 270° West 160 184 1,600 100 Climbing Toronto Center
Fri 06:59:20 PM 43.6333 -79.2833 270° West 160 184 1,600  Level Toronto Center
Fri 06:59:20 PM 43.6333 -79.2833 270° West 160 184 1,600  Level Toronto Center
Fri 06:59:20 PM 43.6333 -79.2833 270° West 160 184 1,600  Level Toronto Center
Fri 06:59:20 PM 43.6333 -79.2833 270° West 160 184 1,600 -600 Level Toronto Center
Fri 07:01:20 PM 43.6167 -79.3833 257° West 110 127 400 -600 Descending Toronto Center

Login

Don't have an account? Register now (free) for customized features, flight alerts, and more!